HE16 weather

Birma Air Base
Tanta, Gharbia Governorate, Egypt

Public forecast

Using degrees Celsius for public forecast. Weather courtesy of forecast.io.

Closest aviation weather report (METAR) to Birma Air Base

Closest report is Cairo International Airport, 49.3 nm (91.3 km) SSE. Retrieved 2019/10/21 22:30 UTC (0 seconds ago):

HECA 212230Z 04007KT CAVOK 24/20 Q1012 NOSIG

Closest aviation forecast (TAF) to Birma Air Base

Closest forecast is Cairo International Airport, 49.3 nm (91.3 km) SSE. Retrieved 2019/10/21 18:16 UTC (4 hours ago):

TAF COR HECA 211745Z 2118/2224 02013KT 6000 SCT025 BKN030 TEMPO 2118/2212 4000TSRA BKN020CB